sensor_id;sensor_type;location;lat;lon;timestamp;temperature;humidity
33271;DHT22;53180;51.344;6.152;2022-12-07T00:01:55;4.50;94.80
33271;DHT22;53180;51.344;6.152;2022-12-07T00:04:23;4.50;94.90
33271;DHT22;53180;51.344;6.152;2022-12-07T00:06:53;4.50;94.90
33271;DHT22;53180;51.344;6.152;2022-12-07T00:09:21;4.60;95.00
33271;DHT22;53180;51.344;6.152;2022-12-07T00:11:50;4.60;95.00
33271;DHT22;53180;51.344;6.152;2022-12-07T00:14:21;4.60;95.00
33271;DHT22;53180;51.344;6.152;2022-12-07T00:16:50;4.60;95.00
33271;DHT22;53180;51.344;6.152;2022-12-07T00:19:19;4.60;95.00
33271;DHT22;53180;51.344;6.152;2022-12-07T00:21:47;4.60;95.00
33271;DHT22;53180;51.344;6.152;2022-12-07T00:24:15;4.60;95.00
33271;DHT22;53180;51.344;6.152;2022-12-07T00:26:44;4.60;95.00
33271;DHT22;53180;51.344;6.152;2022-12-07T00:29:18;4.70;95.00
33271;DHT22;53180;51.344;6.152;2022-12-07T00:31:51;4.60;95.00
33271;DHT22;53180;51.344;6.152;2022-12-07T00:34:21;4.70;94.90
33271;DHT22;53180;51.344;6.152;2022-12-07T00:36:50;4.60;94.90
33271;DHT22;53180;51.344;6.152;2022-12-07T00:39:18;4.60;94.90
33271;DHT22;53180;51.344;6.152;2022-12-07T00:41:46;4.60;94.90
33271;DHT22;53180;51.344;6.152;2022-12-07T00:44:14;4.60;94.90
33271;DHT22;53180;51.344;6.152;2022-12-07T00:46:44;4.60;94.80
33271;DHT22;53180;51.344;6.152;2022-12-07T00:49:13;4.50;94.80
33271;DHT22;53180;51.344;6.152;2022-12-07T00:51:41;4.50;94.80
33271;DHT22;53180;51.344;6.152;2022-12-07T00:54:09;4.50;94.90
33271;DHT22;53180;51.344;6.152;2022-12-07T00:56:38;4.50;94.80
33271;DHT22;53180;51.344;6.152;2022-12-07T00:59:06;4.50;94.80
33271;DHT22;53180;51.344;6.152;2022-12-07T01:01:36;4.40;94.80
33271;DHT22;53180;51.344;6.152;2022-12-07T01:04:06;4.40;94.90
33271;DHT22;53180;51.344;6.152;2022-12-07T01:06:34;4.40;94.90
33271;DHT22;53180;51.344;6.152;2022-12-07T01:09:03;4.40;94.80
33271;DHT22;53180;51.344;6.152;2022-12-07T01:11:33;4.40;94.90
33271;DHT22;53180;51.344;6.152;2022-12-07T01:14:01;4.30;94.90
33271;DHT22;53180;51.344;6.152;2022-12-07T01:16:31;4.30;94.90
33271;DHT22;53180;51.344;6.152;2022-12-07T01:19:01;4.30;94.90
33271;DHT22;53180;51.344;6.152;2022-12-07T01:21:33;4.30;94.90
33271;DHT22;53180;51.344;6.152;2022-12-07T01:24:06;4.20;94.90
33271;DHT22;53180;51.344;6.152;2022-12-07T01:26:35;4.20;94.90
33271;DHT22;53180;51.344;6.152;2022-12-07T01:29:03;4.20;94.90
33271;DHT22;53180;51.344;6.152;2022-12-07T01:31:32;4.20;94.90
33271;DHT22;53180;51.344;6.152;2022-12-07T01:34:01;4.20;94.90
33271;DHT22;53180;51.344;6.152;2022-12-07T01:36:34;4.20;95.00
33271;DHT22;53180;51.344;6.152;2022-12-07T01:39:05;4.20;95.00
33271;DHT22;53180;51.344;6.152;2022-12-07T01:41:36;4.10;95.00
33271;DHT22;53180;51.344;6.152;2022-12-07T01:44:19;4.10;95.00
33271;DHT22;53180;51.344;6.152;2022-12-07T01:46:50;4.10;94.90
33271;DHT22;53180;51.344;6.152;2022-12-07T01:49:23;4.10;95.00
33271;DHT22;53180;51.344;6.152;2022-12-07T01:52:01;4.00;94.90
33271;DHT22;53180;51.344;6.152;2022-12-07T01:54:36;4.00;94.90
33271;DHT22;53180;51.344;6.152;2022-12-07T01:57:06;4.00;94.90
33271;DHT22;53180;51.344;6.152;2022-12-07T01:59:36;4.00;95.00
33271;DHT22;53180;51.344;6.152;2022-12-07T02:02:10;4.00;95.00
33271;DHT22;53180;51.344;6.152;2022-12-07T02:04:46;4.00;95.10
33271;DHT22;53180;51.344;6.152;2022-12-07T02:07:16;3.90;95.10
33271;DHT22;53180;51.344;6.152;2022-12-07T02:09:44;3.90;95.10
33271;DHT22;53180;51.344;6.152;2022-12-07T02:12:13;3.90;95.10
33271;DHT22;53180;51.344;6.152;2022-12-07T02:14:41;4.00;95.20
33271;DHT22;53180;51.344;6.152;2022-12-07T02:17:14;4.00;95.10
33271;DHT22;53180;51.344;6.152;2022-12-07T02:20:09;4.00;95.20
33271;DHT22;53180;51.344;6.152;2022-12-07T02:23:00;4.00;95.10
33271;DHT22;53180;51.344;6.152;2022-12-07T02:25:53;3.90;95.10
33271;DHT22;53180;51.344;6.152;2022-12-07T02:28:29;3.90;95.10
33271;DHT22;53180;51.344;6.152;2022-12-07T02:31:05;3.90;95.10
33271;DHT22;53180;51.344;6.152;2022-12-07T02:33:39;3.80;95.10
33271;DHT22;53180;51.344;6.152;2022-12-07T02:36:12;3.80;95.10
33271;DHT22;53180;51.344;6.152;2022-12-07T02:38:49;3.90;95.10
33271;DHT22;53180;51.344;6.152;2022-12-07T02:41:24;3.90;95.20
33271;DHT22;53180;51.344;6.152;2022-12-07T02:43:57;3.90;95.20
33271;DHT22;53180;51.344;6.152;2022-12-07T02:46:31;3.90;95.20
33271;DHT22;53180;51.344;6.152;2022-12-07T02:49:02;3.90;95.20
33271;DHT22;53180;51.344;6.152;2022-12-07T02:51:31;3.90;95.20
33271;DHT22;53180;51.344;6.152;2022-12-07T02:54:00;3.80;95.10
33271;DHT22;53180;51.344;6.152;2022-12-07T02:56:39;3.80;95.10
33271;DHT22;53180;51.344;6.152;2022-12-07T02:59:17;3.80;95.20
33271;DHT22;53180;51.344;6.152;2022-12-07T03:02:04;3.90;95.20
33271;DHT22;53180;51.344;6.152;2022-12-07T03:04:43;3.90;95.20
33271;DHT22;53180;51.344;6.152;2022-12-07T03:07:21;3.90;95.20
33271;DHT22;53180;51.344;6.152;2022-12-07T03:09:58;3.90;95.30
33271;DHT22;53180;51.344;6.152;2022-12-07T03:12:32;4.00;95.30
33271;DHT22;53180;51.344;6.152;2022-12-07T03:15:09;4.00;95.30
33271;DHT22;53180;51.344;6.152;2022-12-07T03:17:43;4.00;95.30
33271;DHT22;53180;51.344;6.152;2022-12-07T03:20:15;4.00;95.30
33271;DHT22;53180;51.344;6.152;2022-12-07T03:22:47;4.00;95.30
33271;DHT22;53180;51.344;6.152;2022-12-07T03:25:17;4.00;95.30
33271;DHT22;53180;51.344;6.152;2022-12-07T03:27:49;4.00;95.20
33271;DHT22;53180;51.344;6.152;2022-12-07T03:30:24;3.90;95.20
33271;DHT22;53180;51.344;6.152;2022-12-07T03:33:01;3.90;95.10
33271;DHT22;53180;51.344;6.152;2022-12-07T03:35:34;3.90;95.10
33271;DHT22;53180;51.344;6.152;2022-12-07T03:38:13;3.80;95.10
33271;DHT22;53180;51.344;6.152;2022-12-07T03:40:46;3.80;95.00
33271;DHT22;53180;51.344;6.152;2022-12-07T03:43:18;3.80;95.10
33271;DHT22;53180;51.344;6.152;2022-12-07T03:45:58;3.80;95.00
33271;DHT22;53180;51.344;6.152;2022-12-07T03:48:34;3.70;94.90
33271;DHT22;53180;51.344;6.152;2022-12-07T03:51:10;3.70;94.90
33271;DHT22;53180;51.344;6.152;2022-12-07T03:53:46;3.60;94.90
33271;DHT22;53180;51.344;6.152;2022-12-07T03:56:18;3.70;94.90
33271;DHT22;53180;51.344;6.152;2022-12-07T03:58:48;3.70;95.00
33271;DHT22;53180;51.344;6.152;2022-12-07T04:01:17;3.70;95.00
33271;DHT22;53180;51.344;6.152;2022-12-07T04:03:47;3.70;95.00
33271;DHT22;53180;51.344;6.152;2022-12-07T04:06:16;3.70;95.00
33271;DHT22;53180;51.344;6.152;2022-12-07T04:08:44;3.70;95.00
33271;DHT22;53180;51.344;6.152;2022-12-07T04:11:12;3.70;95.10
33271;DHT22;53180;51.344;6.152;2022-12-07T04:13:40;3.80;95.10
33271;DHT22;53180;51.344;6.152;2022-12-07T04:16:26;3.80;95.10
33271;DHT22;53180;51.344;6.152;2022-12-07T04:18:56;3.80;95.10
33271;DHT22;53180;51.344;6.152;2022-12-07T04:21:24;3.80;95.20
33271;DHT22;53180;51.344;6.152;2022-12-07T04:23:52;3.80;95.20
33271;DHT22;53180;51.344;6.152;2022-12-07T04:26:21;3.90;95.20
33271;DHT22;53180;51.344;6.152;2022-12-07T04:28:49;3.90;95.20
33271;DHT22;53180;51.344;6.152;2022-12-07T04:31:17;3.90;95.20
33271;DHT22;53180;51.344;6.152;2022-12-07T04:33:46;3.80;95.10
33271;DHT22;53180;51.344;6.152;2022-12-07T04:36:15;3.90;95.10
33271;DHT22;53180;51.344;6.152;2022-12-07T04:38:46;3.90;95.10
33271;DHT22;53180;51.344;6.152;2022-12-07T04:41:14;3.80;95.00
33271;DHT22;53180;51.344;6.152;2022-12-07T04:43:43;3.80;95.00
33271;DHT22;53180;51.344;6.152;2022-12-07T04:46:11;3.80;95.00
33271;DHT22;53180;51.344;6.152;2022-12-07T04:48:39;3.80;95.00
33271;DHT22;53180;51.344;6.152;2022-12-07T04:51:07;3.70;94.90
33271;DHT22;53180;51.344;6.152;2022-12-07T04:53:37;3.70;94.90
33271;DHT22;53180;51.344;6.152;2022-12-07T04:56:05;3.70;94.90
33271;DHT22;53180;51.344;6.152;2022-12-07T04:58:34;3.60;94.70
33271;DHT22;53180;51.344;6.152;2022-12-07T05:01:02;3.60;94.80
33271;DHT22;53180;51.344;6.152;2022-12-07T05:03:31;3.60;94.70
33271;DHT22;53180;51.344;6.152;2022-12-07T05:05:59;3.60;94.80
33271;DHT22;53180;51.344;6.152;2022-12-07T05:08:27;3.60;94.80
33271;DHT22;53180;51.344;6.152;2022-12-07T05:10:57;3.60;94.80
33271;DHT22;53180;51.344;6.152;2022-12-07T05:13:25;3.60;94.90
33271;DHT22;53180;51.344;6.152;2022-12-07T05:15:54;3.60;94.90
33271;DHT22;53180;51.344;6.152;2022-12-07T05:18:22;3.60;95.00
33271;DHT22;53180;51.344;6.152;2022-12-07T05:20:51;3.60;94.90
33271;DHT22;53180;51.344;6.152;2022-12-07T05:23:19;3.60;95.00
33271;DHT22;53180;51.344;6.152;2022-12-07T05:25:48;3.60;95.00
33271;DHT22;53180;51.344;6.152;2022-12-07T05:28:18;3.60;95.00
33271;DHT22;53180;51.344;6.152;2022-12-07T05:30:46;3.60;95.10
33271;DHT22;53180;51.344;6.152;2022-12-07T05:33:14;3.70;95.10
33271;DHT22;53180;51.344;6.152;2022-12-07T05:35:42;3.70;95.10
33271;DHT22;53180;51.344;6.152;2022-12-07T05:38:10;3.70;95.10
33271;DHT22;53180;51.344;6.152;2022-12-07T05:40:39;3.70;95.20
33271;DHT22;53180;51.344;6.152;2022-12-07T05:43:07;3.70;95.20
33271;DHT22;53180;51.344;6.152;2022-12-07T05:45:37;3.70;95.20
33271;DHT22;53180;51.344;6.152;2022-12-07T05:48:05;3.80;95.20
33271;DHT22;53180;51.344;6.152;2022-12-07T05:50:34;3.80;95.20
33271;DHT22;53180;51.344;6.152;2022-12-07T05:53:02;3.80;95.30
33271;DHT22;53180;51.344;6.152;2022-12-07T05:55:30;3.90;95.20
33271;DHT22;53180;51.344;6.152;2022-12-07T05:57:58;3.90;95.20
33271;DHT22;53180;51.344;6.152;2022-12-07T06:00:45;3.90;95.20
33271;DHT22;53180;51.344;6.152;2022-12-07T06:03:17;3.90;95.20
33271;DHT22;53180;51.344;6.152;2022-12-07T06:05:47;3.90;95.20
33271;DHT22;53180;51.344;6.152;2022-12-07T06:08:15;3.90;95.20
33271;DHT22;53180;51.344;6.152;2022-12-07T06:10:44;3.90;95.20
33271;DHT22;53180;51.344;6.152;2022-12-07T06:13:12;3.80;95.10
33271;DHT22;53180;51.344;6.152;2022-12-07T06:15:39;3.90;95.10
33271;DHT22;53180;51.344;6.152;2022-12-07T06:18:09;3.90;95.10
33271;DHT22;53180;51.344;6.152;2022-12-07T06:20:37;3.90;95.00
33271;DHT22;53180;51.344;6.152;2022-12-07T06:23:06;3.80;95.00
33271;DHT22;53180;51.344;6.152;2022-12-07T06:25:34;3.80;94.90
33271;DHT22;53180;51.344;6.152;2022-12-07T06:28:02;3.70;94.90
33271;DHT22;53180;51.344;6.152;2022-12-07T06:30:30;3.70;94.90
33271;DHT22;53180;51.344;6.152;2022-12-07T06:32:59;3.70;94.80
33271;DHT22;53180;51.344;6.152;2022-12-07T06:35:28;3.70;94.80
33271;DHT22;53180;51.344;6.152;2022-12-07T06:37:57;3.60;94.80
33271;DHT22;53180;51.344;6.152;2022-12-07T06:40:25;3.60;94.70
33271;DHT22;53180;51.344;6.152;2022-12-07T06:42:53;3.50;94.80
33271;DHT22;53180;51.344;6.152;2022-12-07T06:45:21;3.50;94.80
33271;DHT22;53180;51.344;6.152;2022-12-07T06:47:50;3.50;94.70
33271;DHT22;53180;51.344;6.152;2022-12-07T06:50:18;3.50;94.80
33271;DHT22;53180;51.344;6.152;2022-12-07T06:52:48;3.40;94.70
33271;DHT22;53180;51.344;6.152;2022-12-07T06:55:16;3.40;94.80
33271;DHT22;53180;51.344;6.152;2022-12-07T06:57:44;3.40;94.80
33271;DHT22;53180;51.344;6.152;2022-12-07T07:00:14;3.30;94.80
33271;DHT22;53180;51.344;6.152;2022-12-07T07:02:47;3.30;94.70
33271;DHT22;53180;51.344;6.152;2022-12-07T07:05:16;3.30;94.70
33271;DHT22;53180;51.344;6.152;2022-12-07T07:07:44;3.20;94.60
33271;DHT22;53180;51.344;6.152;2022-12-07T07:10:35;3.20;94.60
33271;DHT22;53180;51.344;6.152;2022-12-07T07:13:04;3.10;94.60
33271;DHT22;53180;51.344;6.152;2022-12-07T07:15:33;3.10;94.60
33271;DHT22;53180;51.344;6.152;2022-12-07T07:18:01;3.00;94.50
33271;DHT22;53180;51.344;6.152;2022-12-07T07:20:34;3.00;94.50
33271;DHT22;53180;51.344;6.152;2022-12-07T07:23:02;3.00;94.60
33271;DHT22;53180;51.344;6.152;2022-12-07T07:25:30;2.90;94.60
33271;DHT22;53180;51.344;6.152;2022-12-07T07:28:01;3.00;94.60
33271;DHT22;53180;51.344;6.152;2022-12-07T07:30:30;2.90;94.60
33271;DHT22;53180;51.344;6.152;2022-12-07T07:32:59;2.90;94.60
33271;DHT22;53180;51.344;6.152;2022-12-07T07:35:29;2.90;94.70
33271;DHT22;53180;51.344;6.152;2022-12-07T07:37:58;2.90;94.70
33271;DHT22;53180;51.344;6.152;2022-12-07T07:40:27;2.90;94.80
33271;DHT22;53180;51.344;6.152;2022-12-07T07:42:57;2.90;94.80
33271;DHT22;53180;51.344;6.152;2022-12-07T07:45:27;2.90;94.90
33271;DHT22;53180;51.344;6.152;2022-12-07T07:47:57;2.90;94.90
33271;DHT22;53180;51.344;6.152;2022-12-07T07:50:26;2.90;95.00
33271;DHT22;53180;51.344;6.152;2022-12-07T07:52:56;2.90;95.00
33271;DHT22;53180;51.344;6.152;2022-12-07T07:55:25;2.90;95.00
33271;DHT22;53180;51.344;6.152;2022-12-07T07:57:54;2.90;95.00
33271;DHT22;53180;51.344;6.152;2022-12-07T08:00:22;2.90;95.00
33271;DHT22;53180;51.344;6.152;2022-12-07T08:02:53;3.00;95.10
33271;DHT22;53180;51.344;6.152;2022-12-07T08:05:21;3.00;95.10
33271;DHT22;53180;51.344;6.152;2022-12-07T08:07:50;3.00;95.10
33271;DHT22;53180;51.344;6.152;2022-12-07T08:10:18;3.00;95.10
33271;DHT22;53180;51.344;6.152;2022-12-07T08:12:47;3.00;95.10
33271;DHT22;53180;51.344;6.152;2022-12-07T08:15:32;2.90;95.10
33271;DHT22;53180;51.344;6.152;2022-12-07T08:18:02;2.90;95.00
33271;DHT22;53180;51.344;6.152;2022-12-07T08:20:31;2.90;95.00
33271;DHT22;53180;51.344;6.152;2022-12-07T08:23:00;2.90;95.00
33271;DHT22;53180;51.344;6.152;2022-12-07T08:25:29;2.90;95.10
33271;DHT22;53180;51.344;6.152;2022-12-07T08:27:58;3.00;95.10
33271;DHT22;53180;51.344;6.152;2022-12-07T08:30:27;3.00;95.10
33271;DHT22;53180;51.344;6.152;2022-12-07T08:32:56;3.10;95.20
33271;DHT22;53180;51.344;6.152;2022-12-07T08:35:26;3.20;95.30
33271;DHT22;53180;51.344;6.152;2022-12-07T08:37:55;3.30;95.30
33271;DHT22;53180;51.344;6.152;2022-12-07T08:40:24;3.40;95.40
33271;DHT22;53180;51.344;6.152;2022-12-07T08:42:53;3.50;95.40
33271;DHT22;53180;51.344;6.152;2022-12-07T08:45:21;3.60;95.30
33271;DHT22;53180;51.344;6.152;2022-12-07T08:47:57;3.60;95.20
33271;DHT22;53180;51.344;6.152;2022-12-07T08:50:31;3.70;95.20
33271;DHT22;53180;51.344;6.152;2022-12-07T08:53:01;3.80;95.10
33271;DHT22;53180;51.344;6.152;2022-12-07T08:55:31;3.90;95.00
33271;DHT22;53180;51.344;6.152;2022-12-07T08:58:02;3.90;94.90
33271;DHT22;53180;51.344;6.152;2022-12-07T09:00:30;3.90;94.70
33271;DHT22;53180;51.344;6.152;2022-12-07T09:02:58;4.00;94.60
33271;DHT22;53180;51.344;6.152;2022-12-07T09:05:27;4.00;94.50
33271;DHT22;53180;51.344;6.152;2022-12-07T09:07:59;4.10;94.40
33271;DHT22;53180;51.344;6.152;2022-12-07T09:10:29;4.10;94.40
33271;DHT22;53180;51.344;6.152;2022-12-07T09:12:57;4.20;94.40
33271;DHT22;53180;51.344;6.152;2022-12-07T09:15:27;4.20;94.30
33271;DHT22;53180;51.344;6.152;2022-12-07T09:17:55;4.20;94.20
33271;DHT22;53180;51.344;6.152;2022-12-07T09:20:24;4.30;94.20
33271;DHT22;53180;51.344;6.152;2022-12-07T09:22:54;4.50;94.20
33271;DHT22;53180;51.344;6.152;2022-12-07T09:25:23;4.70;93.90
33271;DHT22;53180;51.344;6.152;2022-12-07T09:27:55;4.60;93.60
33271;DHT22;53180;51.344;6.152;2022-12-07T09:30:26;4.70;93.50
33271;DHT22;53180;51.344;6.152;2022-12-07T09:32:55;4.80;93.60
33271;DHT22;53180;51.344;6.152;2022-12-07T09:35:25;4.70;93.40
33271;DHT22;53180;51.344;6.152;2022-12-07T09:37:53;4.80;93.40
33271;DHT22;53180;51.344;6.152;2022-12-07T09:40:24;4.90;93.50
33271;DHT22;53180;51.344;6.152;2022-12-07T09:42:54;5.00;93.20
33271;DHT22;53180;51.344;6.152;2022-12-07T09:45:26;5.10;93.30
33271;DHT22;53180;51.344;6.152;2022-12-07T09:47:59;5.20;93.10
33271;DHT22;53180;51.344;6.152;2022-12-07T09:50:28;5.30;92.80
33271;DHT22;53180;51.344;6.152;2022-12-07T09:53:07;5.30;92.50
33271;DHT22;53180;51.344;6.152;2022-12-07T09:55:38;5.30;92.20
33271;DHT22;53180;51.344;6.152;2022-12-07T09:58:12;5.30;92.00
33271;DHT22;53180;51.344;6.152;2022-12-07T10:00:46;5.40;92.40
33271;DHT22;53180;51.344;6.152;2022-12-07T10:03:14;5.50;92.40
33271;DHT22;53180;51.344;6.152;2022-12-07T10:05:45;5.50;92.00
33271;DHT22;53180;51.344;6.152;2022-12-07T10:08:15;5.50;92.00
33271;DHT22;53180;51.344;6.152;2022-12-07T10:10:48;5.50;91.80
33271;DHT22;53180;51.344;6.152;2022-12-07T10:13:20;5.50;91.60
33271;DHT22;53180;51.344;6.152;2022-12-07T10:15:51;5.40;91.50
33271;DHT22;53180;51.344;6.152;2022-12-07T10:18:27;5.40;91.50
33271;DHT22;53180;51.344;6.152;2022-12-07T10:21:08;5.30;91.60
33271;DHT22;53180;51.344;6.152;2022-12-07T10:23:40;5.30;91.60
33271;DHT22;53180;51.344;6.152;2022-12-07T10:26:31;5.30;91.70
33271;DHT22;53180;51.344;6.152;2022-12-07T10:31:54;5.40;91.80
33271;DHT22;53180;51.344;6.152;2022-12-07T10:34:27;5.50;91.70
33271;DHT22;53180;51.344;6.152;2022-12-07T10:37:18;5.50;91.50
33271;DHT22;53180;51.344;6.152;2022-12-07T10:39:48;5.50;91.60
33271;DHT22;53180;51.344;6.152;2022-12-07T10:42:20;5.50;91.40
33271;DHT22;53180;51.344;6.152;2022-12-07T10:45:08;5.40;91.40
33271;DHT22;53180;51.344;6.152;2022-12-07T10:47:45;5.50;91.90
33271;DHT22;53180;51.344;6.152;2022-12-07T10:50:34;5.50;91.70
33271;DHT22;53180;51.344;6.152;2022-12-07T10:53:31;5.50;91.40
33271;DHT22;53180;51.344;6.152;2022-12-07T10:59:39;5.50;91.30
33271;DHT22;53180;51.344;6.152;2022-12-07T11:02:25;5.50;91.60
33271;DHT22;53180;51.344;6.152;2022-12-07T11:05:07;5.70;91.80
33271;DHT22;53180;51.344;6.152;2022-12-07T11:07:47;5.80;91.80
33271;DHT22;53180;51.344;6.152;2022-12-07T11:10:27;5.90;91.90
33271;DHT22;53180;51.344;6.152;2022-12-07T11:13:24;5.90;91.30
33271;DHT22;53180;51.344;6.152;2022-12-07T11:16:21;5.90;90.90
33271;DHT22;53180;51.344;6.152;2022-12-07T11:19:03;5.90;90.90
33271;DHT22;53180;51.344;6.152;2022-12-07T11:21:55;5.90;90.90
33271;DHT22;53180;51.344;6.152;2022-12-07T11:24:31;5.90;91.00
33271;DHT22;53180;51.344;6.152;2022-12-07T11:27:14;6.00;90.80
33271;DHT22;53180;51.344;6.152;2022-12-07T11:32:57;6.00;90.10
33271;DHT22;53180;51.344;6.152;2022-12-07T11:35:38;6.00;90.30
33271;DHT22;53180;51.344;6.152;2022-12-07T11:38:26;6.10;90.10
33271;DHT22;53180;51.344;6.152;2022-12-07T11:41:01;6.20;90.10
33271;DHT22;53180;51.344;6.152;2022-12-07T11:43:53;6.30;90.10
33271;DHT22;53180;51.344;6.152;2022-12-07T11:46:27;6.50;90.10
33271;DHT22;53180;51.344;6.152;2022-12-07T11:49:03;6.70;89.10
33271;DHT22;53180;51.344;6.152;2022-12-07T11:51:39;6.70;88.30
33271;DHT22;53180;51.344;6.152;2022-12-07T11:54:15;6.60;88.30
33271;DHT22;53180;51.344;6.152;2022-12-07T11:56:48;6.60;88.70
33271;DHT22;53180;51.344;6.152;2022-12-07T11:59:22;6.60;88.20
33271;DHT22;53180;51.344;6.152;2022-12-07T12:01:55;6.60;87.90
33271;DHT22;53180;51.344;6.152;2022-12-07T12:04:34;6.50;88.20
33271;DHT22;53180;51.344;6.152;2022-12-07T12:07:15;6.50;88.70
33271;DHT22;53180;51.344;6.152;2022-12-07T12:10:13;6.50;88.60
33271;DHT22;53180;51.344;6.152;2022-12-07T12:12:55;6.50;89.00
33271;DHT22;53180;51.344;6.152;2022-12-07T12:16:13;6.50;88.40
33271;DHT22;53180;51.344;6.152;2022-12-07T12:19:02;6.50;87.80
33271;DHT22;53180;51.344;6.152;2022-12-07T12:21:41;6.50;87.80
33271;DHT22;53180;51.344;6.152;2022-12-07T12:24:14;6.50;88.30
33271;DHT22;53180;51.344;6.152;2022-12-07T12:26:50;6.50;88.00
33271;DHT22;53180;51.344;6.152;2022-12-07T12:29:23;6.50;87.90
33271;DHT22;53180;51.344;6.152;2022-12-07T12:32:14;6.40;88.30
33271;DHT22;53180;51.344;6.152;2022-12-07T12:34:59;6.40;88.20
33271;DHT22;53180;51.344;6.152;2022-12-07T12:37:44;6.40;87.70
33271;DHT22;53180;51.344;6.152;2022-12-07T12:40:41;6.40;88.00
33271;DHT22;53180;51.344;6.152;2022-12-07T12:43:41;6.40;88.60
33271;DHT22;53180;51.344;6.152;2022-12-07T12:49:35;6.40;88.90
33271;DHT22;53180;51.344;6.152;2022-12-07T12:58:40;6.50;88.20
33271;DHT22;53180;51.344;6.152;2022-12-07T13:01:33;6.50;87.90
33271;DHT22;53180;51.344;6.152;2022-12-07T13:04:30;6.60;88.20
33271;DHT22;53180;51.344;6.152;2022-12-07T13:07:12;6.60;88.50
33271;DHT22;53180;51.344;6.152;2022-12-07T13:09:44;6.60;88.10
33271;DHT22;53180;51.344;6.152;2022-12-07T13:12:14;6.60;87.40
33271;DHT22;53180;51.344;6.152;2022-12-07T13:14:56;6.60;87.80
33271;DHT22;53180;51.344;6.152;2022-12-07T13:17:55;6.50;88.00
33271;DHT22;53180;51.344;6.152;2022-12-07T13:20:56;6.50;88.10
33271;DHT22;53180;51.344;6.152;2022-12-07T13:23:30;6.50;87.90
33271;DHT22;53180;51.344;6.152;2022-12-07T13:26:20;6.50;88.00
33271;DHT22;53180;51.344;6.152;2022-12-07T13:28:51;6.50;88.30
33271;DHT22;53180;51.344;6.152;2022-12-07T13:31:30;6.50;88.00
33271;DHT22;53180;51.344;6.152;2022-12-07T13:34:01;6.50;88.10
33271;DHT22;53180;51.344;6.152;2022-12-07T13:36:33;6.40;87.90
33271;DHT22;53180;51.344;6.152;2022-12-07T13:39:22;6.40;88.00
33271;DHT22;53180;51.344;6.152;2022-12-07T13:41:53;6.30;88.60
33271;DHT22;53180;51.344;6.152;2022-12-07T13:44:24;6.30;88.00
33271;DHT22;53180;51.344;6.152;2022-12-07T13:46:57;6.30;88.00
33271;DHT22;53180;51.344;6.152;2022-12-07T13:49:30;6.20;88.00
33271;DHT22;53180;51.344;6.152;2022-12-07T13:52:15;6.20;88.50
33271;DHT22;53180;51.344;6.152;2022-12-07T13:54:46;6.20;88.40
33271;DHT22;53180;51.344;6.152;2022-12-07T13:57:17;6.20;88.20
33271;DHT22;53180;51.344;6.152;2022-12-07T13:59:46;6.20;88.10
33271;DHT22;53180;51.344;6.152;2022-12-07T14:02:19;6.20;88.00
33271;DHT22;53180;51.344;6.152;2022-12-07T14:04:49;6.20;88.80
33271;DHT22;53180;51.344;6.152;2022-12-07T14:07:21;6.20;88.50
33271;DHT22;53180;51.344;6.152;2022-12-07T14:09:59;6.20;88.50
33271;DHT22;53180;51.344;6.152;2022-12-07T14:12:31;6.20;88.60
33271;DHT22;53180;51.344;6.152;2022-12-07T14:15:01;6.20;88.30
33271;DHT22;53180;51.344;6.152;2022-12-07T14:17:31;6.20;88.50
33271;DHT22;53180;51.344;6.152;2022-12-07T14:20:00;6.20;88.40
33271;DHT22;53180;51.344;6.152;2022-12-07T14:22:31;6.20;88.20
33271;DHT22;53180;51.344;6.152;2022-12-07T14:25:15;6.20;88.50
33271;DHT22;53180;51.344;6.152;2022-12-07T14:27:55;6.10;87.80
33271;DHT22;53180;51.344;6.152;2022-12-07T14:30:27;6.00;87.80
33271;DHT22;53180;51.344;6.152;2022-12-07T14:32:58;6.00;88.20
33271;DHT22;53180;51.344;6.152;2022-12-07T14:35:28;6.00;88.00
33271;DHT22;53180;51.344;6.152;2022-12-07T14:37:57;6.00;88.40
33271;DHT22;53180;51.344;6.152;2022-12-07T14:40:28;5.90;89.00
33271;DHT22;53180;51.344;6.152;2022-12-07T14:43:00;5.90;89.10
33271;DHT22;53180;51.344;6.152;2022-12-07T14:45:31;6.00;89.60
33271;DHT22;53180;51.344;6.152;2022-12-07T14:47:59;6.00;89.30
33271;DHT22;53180;51.344;6.152;2022-12-07T14:50:50;6.00;89.20
33271;DHT22;53180;51.344;6.152;2022-12-07T14:53:43;6.10;89.10
33271;DHT22;53180;51.344;6.152;2022-12-07T14:56:19;6.10;89.30
33271;DHT22;53180;51.344;6.152;2022-12-07T14:58:48;6.10;89.40
33271;DHT22;53180;51.344;6.152;2022-12-07T15:01:17;6.00;89.20
33271;DHT22;53180;51.344;6.152;2022-12-07T15:03:45;6.00;89.10
33271;DHT22;53180;51.344;6.152;2022-12-07T15:06:15;6.00;89.50
33271;DHT22;53180;51.344;6.152;2022-12-07T15:08:45;5.90;89.50
33271;DHT22;53180;51.344;6.152;2022-12-07T15:11:14;5.90;89.70
33271;DHT22;53180;51.344;6.152;2022-12-07T15:13:42;5.90;89.50
33271;DHT22;53180;51.344;6.152;2022-12-07T15:16:30;5.90;89.60
33271;DHT22;53180;51.344;6.152;2022-12-07T15:19:20;5.80;89.60
33271;DHT22;53180;51.344;6.152;2022-12-07T15:21:56;5.80;90.00
33271;DHT22;53180;51.344;6.152;2022-12-07T15:24:25;5.70;89.90
33271;DHT22;53180;51.344;6.152;2022-12-07T15:26:53;5.70;90.00
33271;DHT22;53180;51.344;6.152;2022-12-07T15:29:22;5.70;90.10
33271;DHT22;53180;51.344;6.152;2022-12-07T15:31:52;5.70;90.00
33271;DHT22;53180;51.344;6.152;2022-12-07T15:34:24;5.70;90.30
33271;DHT22;53180;51.344;6.152;2022-12-07T15:37:01;5.70;90.30
33271;DHT22;53180;51.344;6.152;2022-12-07T15:39:30;5.60;90.30
33271;DHT22;53180;51.344;6.152;2022-12-07T15:41:59;5.60;90.40
33271;DHT22;53180;51.344;6.152;2022-12-07T15:44:27;5.60;90.20
33271;DHT22;53180;51.344;6.152;2022-12-07T15:47:14;5.60;90.40
33271;DHT22;53180;51.344;6.152;2022-12-07T15:49:43;5.60;90.50
33271;DHT22;53180;51.344;6.152;2022-12-07T15:52:11;5.60;90.50
33271;DHT22;53180;51.344;6.152;2022-12-07T15:54:39;5.60;90.60
33271;DHT22;53180;51.344;6.152;2022-12-07T15:57:08;5.60;90.50
33271;DHT22;53180;51.344;6.152;2022-12-07T15:59:36;5.60;90.70
33271;DHT22;53180;51.344;6.152;2022-12-07T16:02:04;5.60;90.70
33271;DHT22;53180;51.344;6.152;2022-12-07T16:04:34;5.60;90.50
33271;DHT22;53180;51.344;6.152;2022-12-07T16:07:03;5.60;90.70
33271;DHT22;53180;51.344;6.152;2022-12-07T16:09:31;5.50;90.60
33271;DHT22;53180;51.344;6.152;2022-12-07T16:12:00;5.60;90.70
33271;DHT22;53180;51.344;6.152;2022-12-07T16:14:28;5.60;90.80
33271;DHT22;53180;51.344;6.152;2022-12-07T16:16:59;5.60;91.10
33271;DHT22;53180;51.344;6.152;2022-12-07T16:19:31;5.60;91.30
33271;DHT22;53180;51.344;6.152;2022-12-07T16:22:02;5.50;91.40
33271;DHT22;53180;51.344;6.152;2022-12-07T16:24:31;5.50;91.60
33271;DHT22;53180;51.344;6.152;2022-12-07T16:26:59;5.50;91.70
33271;DHT22;53180;51.344;6.152;2022-12-07T16:29:28;5.40;91.80
33271;DHT22;53180;51.344;6.152;2022-12-07T16:31:56;5.40;91.60
33271;DHT22;53180;51.344;6.152;2022-12-07T16:34:24;5.30;91.70
33271;DHT22;53180;51.344;6.152;2022-12-07T16:36:53;5.30;91.70
33271;DHT22;53180;51.344;6.152;2022-12-07T16:39:32;5.30;91.80
33271;DHT22;53180;51.344;6.152;2022-12-07T16:42:03;5.30;92.00